createdAt,value
2023-05-15T00:00:46.390Z,10.74
2023-05-15T00:03:12.922Z,10.71
2023-05-15T00:05:39.655Z,10.80
2023-05-15T00:08:06.231Z,10.85
2023-05-15T00:10:32.565Z,10.71
2023-05-15T00:12:58.958Z,10.54
2023-05-15T00:15:25.624Z,10.66
2023-05-15T00:17:52.133Z,10.63
2023-05-15T00:20:18.562Z,10.55
2023-05-15T00:22:44.893Z,10.61
2023-05-15T00:25:11.346Z,10.65
2023-05-15T00:27:37.706Z,10.54
2023-05-15T00:30:05.743Z,10.60
2023-05-15T00:32:32.123Z,10.61
2023-05-15T00:34:58.434Z,10.59
2023-05-15T00:37:24.744Z,10.38
2023-05-15T00:39:51.403Z,10.35
2023-05-15T00:42:18.346Z,10.23
2023-05-15T00:44:45.633Z,10.23
2023-05-15T00:47:12.529Z,10.25
2023-05-15T00:49:39.443Z,10.22
2023-05-15T00:52:08.307Z,10.07
2023-05-15T00:54:35.244Z,9.88
2023-05-15T00:57:05.159Z,9.83
2023-05-15T00:59:32.631Z,9.73
2023-05-15T01:01:58.986Z,9.67
2023-05-15T01:04:25.561Z,9.73
2023-05-15T01:06:53.869Z,9.86
2023-05-15T01:09:23.436Z,9.96
2023-05-15T01:11:53.253Z,10.08
2023-05-15T01:14:19.611Z,10.09
2023-05-15T01:16:46.226Z,9.95
2023-05-15T01:19:12.657Z,9.99
2023-05-15T01:22:03.570Z,9.89
2023-05-15T01:24:55.668Z,9.84
2023-05-15T01:27:30.161Z,9.72
2023-05-15T01:30:21.305Z,9.58
2023-05-15T01:33:24.721Z,9.29
2023-05-15T01:36:05.257Z,9.35
2023-05-15T01:38:38.631Z,9.35
2023-05-15T01:41:30.010Z,9.24
2023-05-15T01:44:02.705Z,9.17
2023-05-15T01:46:31.565Z,9.17
2023-05-15T01:49:00.904Z,9.30
2023-05-15T01:51:29.164Z,9.35
2023-05-15T01:53:56.343Z,9.23
2023-05-15T01:56:24.234Z,9.19
2023-05-15T01:58:52.297Z,9.25
2023-05-15T02:01:19.511Z,9.25
2023-05-15T02:03:47.040Z,9.24
2023-05-15T02:06:14.142Z,9.13
2023-05-15T02:08:42.476Z,9.24
2023-05-15T02:11:09.660Z,9.14
2023-05-15T02:13:36.763Z,9.03
2023-05-15T02:16:03.212Z,9.01
2023-05-15T02:18:29.581Z,8.96
2023-05-15T02:20:56.003Z,8.98
2023-05-15T02:23:22.542Z,9.01
2023-05-15T02:26:40.027Z,8.99
2023-05-15T02:29:23.478Z,8.99
2023-05-15T02:32:13.717Z,9.04
2023-05-15T02:34:48.642Z,9.12
2023-05-15T02:37:19.160Z,9.18
2023-05-15T02:39:46.613Z,9.11
2023-05-15T02:42:14.616Z,9.09
2023-05-15T02:44:43.247Z,9.03
2023-05-15T02:47:09.837Z,8.94
2023-05-15T02:49:37.397Z,8.95
2023-05-15T02:52:04.063Z,8.93
2023-05-15T02:54:30.378Z,8.98
2023-05-15T02:56:56.692Z,8.95
2023-05-15T02:59:23.148Z,8.82
2023-05-15T03:01:49.589Z,8.65
2023-05-15T03:04:16.118Z,8.75
2023-05-15T03:06:42.435Z,8.67
2023-05-15T03:09:08.743Z,8.76
2023-05-15T03:11:35.038Z,8.70
2023-05-15T03:14:01.360Z,8.64
2023-05-15T03:16:28.484Z,8.69
2023-05-15T03:18:54.841Z,8.72
2023-05-15T03:21:21.282Z,8.64
2023-05-15T03:23:47.539Z,8.69
2023-05-15T03:26:13.912Z,8.67
2023-05-15T03:28:42.136Z,8.72
2023-05-15T03:31:08.674Z,8.75
2023-05-15T03:33:35.217Z,8.90
2023-05-15T03:36:01.536Z,8.91
2023-05-15T03:38:27.835Z,8.88
2023-05-15T03:40:54.148Z,8.86
2023-05-15T03:43:20.545Z,8.96
2023-05-15T03:45:46.909Z,8.95
2023-05-15T03:48:13.414Z,8.91
2023-05-15T03:50:40.219Z,8.89
2023-05-15T03:53:06.570Z,8.87
2023-05-15T03:55:33.035Z,8.92
2023-05-15T03:57:59.931Z,9.02
2023-05-15T04:00:26.499Z,9.18
2023-05-15T04:02:53.056Z,9.07
2023-05-15T04:05:22.552Z,9.12
2023-05-15T04:07:49.074Z,9.15
2023-05-15T04:10:15.564Z,9.17
2023-05-15T04:12:41.911Z,9.18
2023-05-15T04:15:26.090Z,9.19
2023-05-15T04:17:53.661Z,9.12
2023-05-15T04:20:22.258Z,9.19
2023-05-15T04:22:48.889Z,9.24
2023-05-15T04:25:16.024Z,9.33
2023-05-15T04:27:43.614Z,9.34
2023-05-15T04:30:10.919Z,9.27
2023-05-15T04:32:38.038Z,9.28
2023-05-15T04:35:05.772Z,9.23
2023-05-15T04:37:32.335Z,9.28
2023-05-15T04:39:58.652Z,9.40
2023-05-15T04:42:25.073Z,9.46
2023-05-15T04:44:51.456Z,9.55
2023-05-15T04:47:17.882Z,9.75
2023-05-15T04:49:44.250Z,9.84
2023-05-15T04:52:10.546Z,9.89
2023-05-15T04:54:36.880Z,10.07
2023-05-15T04:57:03.358Z,10.42
2023-05-15T04:59:29.793Z,10.80
2023-05-15T05:01:56.182Z,10.99
2023-05-15T05:04:23.199Z,11.08
2023-05-15T05:06:49.679Z,11.45
2023-05-15T05:09:16.120Z,11.62
2023-05-15T05:11:43.596Z,11.80
2023-05-15T05:14:10.948Z,12.15
2023-05-15T05:16:38.055Z,12.34
2023-05-15T05:19:05.507Z,12.53
2023-05-15T05:21:32.661Z,12.61
2023-05-15T05:23:59.197Z,12.53
2023-05-15T05:26:26.164Z,12.90
2023-05-15T05:28:53.034Z,12.86
2023-05-15T05:31:21.084Z,13.10
2023-05-15T05:33:49.426Z,13.13
2023-05-15T05:36:15.883Z,13.08
2023-05-15T05:38:42.435Z,13.33
2023-05-15T05:41:08.802Z,13.52
2023-05-15T05:43:35.215Z,13.28
2023-05-15T05:46:02.210Z,13.34
2023-05-15T05:48:28.627Z,13.39
2023-05-15T05:50:54.955Z,13.50
2023-05-15T05:53:21.267Z,13.84
2023-05-15T05:55:47.806Z,14.00
2023-05-15T05:58:24.930Z,14.04
2023-05-15T06:00:52.336Z,14.01
2023-05-15T06:03:19.141Z,14.08
2023-05-15T06:05:45.978Z,14.03
2023-05-15T06:08:12.340Z,14.27
2023-05-15T06:10:38.767Z,14.40
2023-05-15T06:13:05.092Z,14.38
2023-05-15T06:15:31.475Z,14.47
2023-05-15T06:17:57.872Z,14.56
2023-05-15T06:20:24.405Z,14.49
2023-05-15T06:22:50.997Z,14.46
2023-05-15T06:25:18.207Z,14.26
2023-05-15T06:27:44.629Z,14.36
2023-05-15T06:30:11.662Z,14.23
2023-05-15T06:32:38.030Z,14.14
2023-05-15T06:35:04.786Z,14.24
2023-05-15T06:37:31.144Z,14.76
2023-05-15T06:39:57.516Z,15.10
2023-05-15T06:42:24.113Z,15.43
2023-05-15T06:44:50.670Z,15.56
2023-05-15T06:47:16.994Z,15.61
2023-05-15T06:49:43.435Z,15.61
2023-05-15T06:52:09.850Z,15.89
2023-05-15T06:54:36.277Z,16.03
2023-05-15T06:57:02.586Z,16.08
2023-05-15T06:59:28.966Z,16.26
2023-05-15T07:01:56.039Z,16.41
2023-05-15T07:04:22.595Z,16.31
2023-05-15T07:06:49.024Z,16.19
2023-05-15T07:09:15.316Z,16.33
2023-05-15T07:11:42.140Z,16.42
2023-05-15T07:14:08.829Z,16.64
2023-05-15T07:16:36.321Z,16.73
2023-05-15T07:19:02.690Z,16.91
2023-05-15T07:21:29.056Z,16.73
2023-05-15T07:23:55.373Z,16.53
2023-05-15T07:26:34.424Z,16.73
2023-05-15T07:29:05.313Z,17.12
2023-05-15T07:31:32.168Z,17.13
2023-05-15T07:33:58.498Z,17.13
2023-05-15T07:36:24.800Z,17.33
2023-05-15T07:38:51.139Z,17.31
2023-05-15T07:41:17.423Z,17.45
2023-05-15T07:43:43.688Z,17.47
2023-05-15T07:46:10.086Z,17.30
2023-05-15T07:48:36.353Z,17.72
2023-05-15T07:51:03.189Z,17.72
2023-05-15T07:53:29.755Z,17.90
2023-05-15T07:55:56.334Z,17.95
2023-05-15T07:58:29.307Z,18.09
2023-05-15T08:00:55.617Z,18.09
2023-05-15T08:03:22.078Z,18.12
2023-05-15T08:05:48.475Z,18.09
2023-05-15T08:08:14.994Z,17.92
2023-05-15T08:10:41.294Z,18.01
2023-05-15T08:13:07.636Z,18.41
2023-05-15T08:15:34.057Z,18.61
2023-05-15T08:18:00.639Z,18.62
2023-05-15T08:20:26.982Z,18.43
2023-05-15T08:22:53.254Z,18.56
2023-05-15T08:25:19.680Z,18.58
2023-05-15T08:27:46.000Z,18.48
2023-05-15T08:30:13.410Z,18.73
2023-05-15T08:32:39.776Z,18.85
2023-05-15T08:35:06.762Z,19.20
2023-05-15T08:37:33.524Z,19.08
2023-05-15T08:39:59.890Z,19.09
2023-05-15T08:42:37.608Z,19.22
2023-05-15T08:45:05.845Z,19.52
2023-05-15T08:47:37.325Z,19.43
2023-05-15T08:50:15.165Z,19.07
2023-05-15T08:52:43.859Z,19.10
2023-05-15T08:55:13.056Z,19.33
2023-05-15T08:57:39.956Z,19.66
2023-05-15T09:00:09.146Z,19.38
2023-05-15T09:02:37.198Z,19.62
2023-05-15T09:05:07.361Z,19.95
2023-05-15T09:07:34.486Z,19.94
2023-05-15T09:10:02.640Z,19.86
2023-05-15T09:12:33.365Z,19.93
2023-05-15T09:15:14.382Z,19.77
2023-05-15T09:17:40.881Z,19.65
2023-05-15T09:20:11.413Z,19.69
2023-05-15T09:22:37.795Z,19.69
2023-05-15T09:25:04.532Z,19.57
2023-05-15T09:27:41.726Z,19.87
2023-05-15T09:30:09.736Z,20.19
2023-05-15T09:32:37.304Z,20.25
2023-05-15T09:35:04.483Z,20.51
2023-05-15T09:37:32.869Z,20.35
2023-05-15T09:40:10.784Z,20.53
2023-05-15T09:42:37.693Z,20.40
2023-05-15T09:45:04.683Z,20.39
2023-05-15T09:47:31.628Z,20.47
2023-05-15T09:49:58.513Z,20.48
2023-05-15T09:52:24.914Z,20.61
2023-05-15T09:54:51.966Z,20.56
2023-05-15T09:57:22.090Z,20.69
2023-05-15T09:59:49.671Z,21.06
2023-05-15T10:02:34.606Z,21.00
2023-05-15T10:05:01.320Z,20.84
2023-05-15T10:07:29.128Z,20.94
2023-05-15T10:09:55.694Z,20.85
2023-05-15T10:12:23.250Z,20.73
2023-05-15T10:14:50.913Z,20.35
2023-05-15T10:17:19.952Z,20.23
2023-05-15T10:19:57.730Z,20.35
2023-05-15T10:22:29.166Z,20.30
2023-05-15T10:25:18.356Z,20.10
2023-05-15T10:27:46.662Z,20.29
2023-05-15T10:30:16.739Z,20.33
2023-05-15T10:32:46.405Z,20.45
2023-05-15T10:35:12.913Z,20.79
2023-05-15T10:37:40.340Z,20.74
2023-05-15T10:40:10.172Z,20.85
2023-05-15T10:42:38.371Z,20.61
2023-05-15T10:45:07.388Z,20.41
2023-05-15T10:47:35.165Z,20.58
2023-05-15T10:50:01.579Z,20.45
2023-05-15T10:52:27.988Z,20.49
2023-05-15T10:54:54.600Z,20.32
2023-05-15T10:57:22.027Z,20.31
2023-05-15T10:59:48.550Z,20.24
2023-05-15T11:02:23.340Z,19.98
2023-05-15T11:04:57.029Z,20.19
2023-05-15T11:07:24.236Z,19.97
2023-05-15T11:09:50.703Z,19.90
2023-05-15T11:12:17.193Z,19.87
2023-05-15T11:15:03.718Z,20.03
2023-05-15T11:17:33.097Z,20.15
2023-05-15T11:20:00.345Z,20.18
2023-05-15T11:22:30.933Z,20.27
2023-05-15T11:25:12.282Z,20.33
2023-05-15T11:27:39.663Z,20.33
2023-05-15T11:30:08.013Z,20.31
2023-05-15T11:32:46.699Z,20.18
2023-05-15T11:35:34.562Z,20.18
2023-05-15T11:38:10.097Z,20.59
2023-05-15T11:40:48.721Z,20.80
2023-05-15T11:43:31.599Z,21.17
2023-05-15T11:45:58.784Z,21.30
2023-05-15T11:48:31.297Z,21.34
2023-05-15T11:50:57.693Z,21.50
2023-05-15T11:53:24.646Z,21.69
2023-05-15T11:55:54.089Z,21.43
2023-05-15T11:58:25.689Z,21.73
2023-05-15T12:00:53.541Z,21.58
2023-05-15T12:03:32.170Z,21.41
2023-05-15T12:06:00.060Z,21.61
2023-05-15T12:08:34.304Z,21.44
2023-05-15T12:11:01.864Z,21.29
2023-05-15T12:13:29.518Z,20.41
2023-05-15T12:15:56.749Z,20.06
2023-05-15T12:18:23.460Z,20.00
2023-05-15T12:20:52.885Z,19.90
2023-05-15T12:23:22.585Z,19.94
2023-05-15T12:25:51.766Z,20.02
2023-05-15T12:28:18.336Z,19.84
2023-05-15T12:30:44.900Z,19.92
2023-05-15T12:33:11.527Z,19.70
2023-05-15T12:35:43.371Z,19.85
2023-05-15T12:38:15.586Z,19.75
2023-05-15T12:40:43.955Z,19.72
2023-05-15T12:43:10.604Z,19.72
2023-05-15T12:45:40.631Z,19.57
2023-05-15T12:48:07.897Z,19.71
2023-05-15T12:50:35.666Z,19.86
2023-05-15T12:53:04.624Z,19.95
2023-05-15T12:55:36.334Z,19.94
2023-05-15T12:58:07.022Z,19.79
2023-05-15T13:00:38.802Z,19.83
2023-05-15T13:03:08.185Z,19.92
2023-05-15T13:05:35.874Z,19.93
2023-05-15T13:08:03.856Z,19.99
2023-05-15T13:10:32.919Z,19.99
2023-05-15T13:12:59.373Z,20.04
2023-05-15T13:15:35.192Z,20.20
2023-05-15T13:18:04.066Z,20.16
2023-05-15T13:20:39.197Z,20.08
2023-05-15T13:23:06.243Z,19.96
2023-05-15T13:25:33.242Z,20.06
2023-05-15T13:28:02.139Z,19.91
2023-05-15T13:30:28.557Z,19.78
2023-05-15T13:32:55.930Z,19.80
2023-05-15T13:35:22.778Z,19.84
2023-05-15T13:37:49.516Z,19.90
2023-05-15T13:40:15.899Z,19.75
2023-05-15T13:42:43.307Z,20.00
2023-05-15T13:45:12.677Z,20.09
2023-05-15T13:47:39.897Z,20.34
2023-05-15T13:50:11.619Z,20.20
2023-05-15T13:52:39.201Z,20.18
2023-05-15T13:55:06.390Z,20.15
2023-05-15T13:57:32.763Z,20.19
2023-05-15T13:59:59.063Z,20.12
2023-05-15T14:02:28.684Z,20.21
2023-05-15T14:04:55.558Z,20.19
2023-05-15T14:07:23.418Z,20.39
2023-05-15T14:09:50.548Z,20.42
2023-05-15T14:12:17.220Z,20.40
2023-05-15T14:14:45.985Z,20.10
2023-05-15T14:17:13.159Z,20.19
2023-05-15T14:19:39.547Z,20.66
2023-05-15T14:22:05.841Z,20.33
2023-05-15T14:24:32.290Z,20.20
2023-05-15T14:26:58.635Z,20.05
2023-05-15T14:29:24.998Z,20.07
2023-05-15T14:31:51.381Z,19.91
2023-05-15T14:34:19.079Z,19.70
2023-05-15T14:36:46.554Z,19.74
2023-05-15T14:39:15.113Z,19.75
2023-05-15T14:41:42.311Z,19.48
2023-05-15T14:44:08.925Z,19.34
2023-05-15T14:46:38.404Z,19.27
2023-05-15T14:49:05.516Z,19.16
2023-05-15T14:51:32.304Z,19.15
2023-05-15T14:53:58.788Z,19.16
2023-05-15T14:56:25.797Z,19.12
2023-05-15T14:58:53.527Z,19.31
2023-05-15T15:01:20.643Z,19.35
2023-05-15T15:03:47.183Z,19.33
2023-05-15T15:06:13.705Z,19.22
2023-05-15T15:08:40.080Z,19.14
2023-05-15T15:11:07.596Z,19.34
2023-05-15T15:13:33.967Z,19.41
2023-05-15T15:16:00.343Z,19.02
2023-05-15T15:18:26.734Z,18.78
2023-05-15T15:20:53.083Z,18.65
2023-05-15T15:23:19.351Z,18.55
2023-05-15T15:25:45.669Z,18.68
2023-05-15T15:28:12.904Z,18.57
2023-05-15T15:30:39.275Z,18.54
2023-05-15T15:33:05.754Z,18.56
2023-05-15T15:35:32.182Z,18.74
2023-05-15T15:37:58.828Z,18.76
2023-05-15T15:40:25.620Z,18.83
2023-05-15T15:42:53.647Z,18.95
2023-05-15T15:45:19.958Z,18.86
2023-05-15T15:47:46.339Z,18.90
2023-05-15T15:50:12.723Z,19.01
2023-05-15T15:52:39.025Z,18.90
2023-05-15T15:55:05.971Z,18.55
2023-05-15T15:57:58.298Z,18.63
2023-05-15T16:00:25.024Z,18.53
2023-05-15T16:02:52.663Z,18.29
2023-05-15T16:05:19.222Z,18.15
2023-05-15T16:07:47.783Z,17.74
2023-05-15T16:10:14.234Z,17.78
2023-05-15T16:12:42.060Z,17.57
2023-05-15T16:15:21.492Z,17.40
2023-05-15T16:17:52.897Z,17.50
2023-05-15T16:20:19.935Z,17.38
2023-05-15T16:22:48.672Z,17.43
2023-05-15T16:25:15.125Z,17.49
2023-05-15T16:27:41.527Z,17.60
2023-05-15T16:30:09.183Z,17.66
2023-05-15T16:32:36.190Z,17.66
2023-05-15T16:35:03.107Z,17.63
2023-05-15T16:37:29.571Z,17.60
2023-05-15T16:39:56.033Z,17.48
2023-05-15T16:42:22.504Z,17.40
2023-05-15T16:44:48.799Z,17.24
2023-05-15T16:47:15.085Z,17.29
2023-05-15T16:49:43.909Z,17.26
2023-05-15T16:52:10.983Z,17.31
2023-05-15T16:54:37.377Z,17.30
2023-05-15T16:57:03.715Z,17.34
2023-05-15T16:59:30.080Z,17.44
2023-05-15T17:01:56.433Z,17.15
2023-05-15T17:04:22.809Z,17.01
2023-05-15T17:06:49.111Z,16.75
2023-05-15T17:09:15.758Z,16.83
2023-05-15T17:11:42.075Z,16.89
2023-05-15T17:14:08.678Z,16.79
2023-05-15T17:16:34.990Z,16.63
2023-05-15T17:19:01.398Z,16.51
2023-05-15T17:21:27.703Z,16.47
2023-05-15T17:23:54.250Z,16.56
2023-05-15T17:26:21.523Z,16.62
2023-05-15T17:28:47.855Z,16.64
2023-05-15T17:31:14.161Z,16.47
2023-05-15T17:33:40.504Z,16.49
2023-05-15T17:36:06.894Z,16.37
2023-05-15T17:38:33.456Z,16.32
2023-05-15T17:40:59.798Z,16.18
2023-05-15T17:43:26.073Z,16.12
2023-05-15T17:45:52.472Z,16.15
2023-05-15T17:48:18.761Z,16.01
2023-05-15T17:50:45.133Z,15.92
2023-05-15T17:53:11.600Z,15.88
2023-05-15T17:55:38.072Z,15.91
2023-05-15T17:58:04.433Z,15.88
2023-05-15T18:00:30.796Z,15.91
2023-05-15T18:02:57.271Z,15.87
2023-05-15T18:05:24.215Z,15.72
2023-05-15T18:07:51.022Z,15.62
2023-05-15T18:10:17.314Z,15.66
2023-05-15T18:12:43.947Z,15.65
2023-05-15T18:15:10.799Z,15.58
2023-05-15T18:17:37.277Z,15.49
2023-05-15T18:20:05.471Z,15.37
2023-05-15T18:22:31.804Z,15.42
2023-05-15T18:24:58.312Z,15.37
2023-05-15T18:27:24.687Z,15.32
2023-05-15T18:29:51.590Z,15.32
2023-05-15T18:32:19.271Z,15.24
2023-05-15T18:34:46.819Z,15.24
2023-05-15T18:37:13.584Z,15.15
2023-05-15T18:39:40.200Z,14.98
2023-05-15T18:42:06.848Z,14.77
2023-05-15T18:44:34.698Z,14.76
2023-05-15T18:47:01.924Z,14.69
2023-05-15T18:49:29.474Z,14.67
2023-05-15T18:51:55.861Z,14.65
2023-05-15T18:54:22.154Z,14.60
2023-05-15T18:56:48.467Z,14.57
2023-05-15T18:59:14.777Z,14.50
2023-05-15T19:01:41.218Z,14.40
2023-05-15T19:04:08.958Z,14.37
2023-05-15T19:06:35.254Z,14.33
2023-05-15T19:09:01.788Z,14.34
2023-05-15T19:11:28.257Z,14.02
2023-05-15T19:13:54.568Z,13.83
2023-05-15T19:16:21.020Z,13.69
2023-05-15T19:18:47.368Z,13.58
2023-05-15T19:21:15.579Z,13.49
2023-05-15T19:23:41.868Z,13.43
2023-05-15T19:26:10.153Z,13.35
2023-05-15T19:28:36.433Z,13.19
2023-05-15T19:31:04.298Z,13.14
2023-05-15T19:33:30.882Z,13.06
2023-05-15T19:35:57.158Z,13.00
2023-05-15T19:38:23.470Z,12.78
2023-05-15T19:40:49.803Z,12.68
2023-05-15T19:43:16.105Z,12.62
2023-05-15T19:45:43.198Z,12.53
2023-05-15T19:48:09.991Z,12.49
2023-05-15T19:50:39.729Z,12.51
2023-05-15T19:53:06.132Z,12.53
2023-05-15T19:55:32.712Z,12.19
2023-05-15T19:57:59.497Z,12.23
2023-05-15T20:00:26.245Z,12.19
2023-05-15T20:02:52.881Z,12.23
2023-05-15T20:05:19.339Z,12.05
2023-05-15T20:07:46.135Z,12.13
2023-05-15T20:10:13.846Z,12.04
2023-05-15T20:12:40.209Z,11.80
2023-05-15T20:15:07.440Z,11.72
2023-05-15T20:17:33.893Z,11.70
2023-05-15T20:20:02.105Z,11.48
2023-05-15T20:22:28.425Z,11.23
2023-05-15T20:24:54.729Z,11.21
2023-05-15T20:27:21.055Z,11.23
2023-05-15T20:29:47.333Z,11.06
2023-05-15T20:32:13.804Z,11.00
2023-05-15T20:34:42.721Z,11.05
2023-05-15T20:37:09.146Z,10.88
2023-05-15T20:39:35.445Z,10.97
2023-05-15T20:42:01.767Z,10.97
2023-05-15T20:44:29.448Z,10.76
2023-05-15T20:46:56.048Z,10.50
2023-05-15T20:49:22.471Z,10.56
2023-05-15T20:51:48.886Z,10.72
2023-05-15T20:54:15.980Z,10.65
2023-05-15T20:56:42.285Z,10.61
2023-05-15T20:59:08.606Z,10.56
2023-05-15T21:01:35.045Z,10.56
2023-05-15T21:04:01.453Z,10.36
2023-05-15T21:06:27.850Z,10.28
2023-05-15T21:08:54.135Z,10.12
2023-05-15T21:11:20.444Z,10.12
2023-05-15T21:13:46.707Z,10.14
2023-05-15T21:16:13.058Z,10.13
2023-05-15T21:18:39.478Z,10.14
2023-05-15T21:21:08.843Z,10.13
2023-05-15T21:23:36.475Z,10.13
2023-05-15T21:26:03.420Z,9.96
2023-05-15T21:28:30.721Z,9.96
2023-05-15T21:30:57.140Z,9.87
2023-05-15T21:33:23.782Z,9.88
2023-05-15T21:35:51.393Z,9.83
2023-05-15T21:38:18.201Z,9.81
2023-05-15T21:40:44.690Z,9.82
2023-05-15T21:43:11.074Z,9.55
2023-05-15T21:45:37.418Z,9.54
2023-05-15T21:48:03.841Z,9.49
2023-05-15T21:50:30.238Z,9.53
2023-05-15T21:52:57.128Z,9.58
2023-05-15T21:55:23.417Z,9.56
2023-05-15T21:57:49.842Z,9.54
2023-05-15T22:00:16.928Z,9.69
2023-05-15T22:02:43.416Z,9.61
2023-05-15T22:05:09.895Z,9.66
2023-05-15T22:07:36.226Z,9.53
2023-05-15T22:10:05.587Z,9.61
2023-05-15T22:12:32.170Z,9.56
2023-05-15T22:14:59.739Z,9.51
2023-05-15T22:17:30.169Z,9.48
2023-05-15T22:20:07.016Z,9.37
2023-05-15T22:22:35.270Z,9.41
2023-05-15T22:25:01.541Z,9.22
2023-05-15T22:27:28.191Z,9.15
2023-05-15T22:29:54.884Z,9.17
2023-05-15T22:32:21.187Z,9.23
2023-05-15T22:34:47.554Z,9.19
2023-05-15T22:37:13.932Z,9.29
2023-05-15T22:39:40.425Z,9.21
2023-05-15T22:42:07.137Z,9.21
2023-05-15T22:44:33.543Z,9.10
2023-05-15T22:47:00.039Z,9.05
2023-05-15T22:49:26.395Z,8.91
2023-05-15T22:51:54.870Z,9.03
2023-05-15T22:54:21.723Z,9.06
2023-05-15T22:56:49.900Z,9.09
2023-05-15T22:59:16.437Z,9.12
2023-05-15T23:01:43.719Z,8.97
2023-05-15T23:04:10.463Z,8.98
2023-05-15T23:06:37.109Z,8.97
2023-05-15T23:09:06.616Z,9.04
2023-05-15T23:11:33.389Z,9.10
2023-05-15T23:14:00.378Z,9.09
2023-05-15T23:16:27.117Z,9.12
2023-05-15T23:18:56.764Z,9.12
2023-05-15T23:21:24.084Z,9.16
2023-05-15T23:23:50.560Z,8.98
2023-05-15T23:26:16.912Z,8.88
2023-05-15T23:28:43.267Z,9.00
2023-05-15T23:31:12.272Z,9.15
2023-05-15T23:33:38.677Z,9.18
2023-05-15T23:36:05.948Z,9.21
2023-05-15T23:38:32.372Z,9.07
2023-05-15T23:40:58.636Z,9.08
2023-05-15T23:43:24.901Z,9.03
2023-05-15T23:45:51.179Z,9.10
2023-05-15T23:48:17.815Z,9.10
2023-05-15T23:50:44.676Z,9.12
2023-05-15T23:53:11.065Z,9.19
2023-05-15T23:55:37.377Z,9.20
2023-05-15T23:58:03.882Z,9.13
